sensor_id;sensor_type;location;lat;lon;timestamp;pressure;altitude;pressure_sealevel;temperature;humidity
9257;BME280;4665;51.368;6.782;2023-07-29T00:02:08;62069.41;;;-145.78;100.00
9257;BME280;4665;51.368;6.782;2023-07-29T00:04:33;62069.41;;;-145.78;100.00
9257;BME280;4665;51.368;6.782;2023-07-29T00:06:58;100526.00;;;19.32;100.00
9257;BME280;4665;51.368;6.782;2023-07-29T00:09:24;100514.59;;;19.30;100.00
9257;BME280;4665;51.368;6.782;2023-07-29T00:11:49;62069.41;;;-145.78;100.00
9257;BME280;4665;51.368;6.782;2023-07-29T00:14:15;100515.19;;;19.32;100.00
9257;BME280;4665;51.368;6.782;2023-07-29T00:16:40;100517.91;;;19.32;100.00
9257;BME280;4665;51.368;6.782;2023-07-29T00:19:08;62069.41;;;-145.78;100.00
9257;BME280;4665;51.368;6.782;2023-07-29T00:21:34;62069.41;;;-145.78;100.00
9257;BME280;4665;51.368;6.782;2023-07-29T00:23:59;62069.41;;;-145.78;100.00
9257;BME280;4665;51.368;6.782;2023-07-29T00:26:27;62069.41;;;-145.78;100.00
9257;BME280;4665;51.368;6.782;2023-07-29T00:28:57;100491.50;;;19.03;100.00
9257;BME280;4665;51.368;6.782;2023-07-29T00:31:22;100504.47;;;18.87;100.00
9257;BME280;4665;51.368;6.782;2023-07-29T00:33:48;100501.34;;;18.90;100.00
9257;BME280;4665;51.368;6.782;2023-07-29T00:36:13;100505.28;;;18.95;100.00
9257;BME280;4665;51.368;6.782;2023-07-29T00:38:41;100503.00;;;18.91;100.00
9257;BME280;4665;51.368;6.782;2023-07-29T00:41:06;100500.69;;;18.95;100.00
9257;BME280;4665;51.368;6.782;2023-07-29T00:43:33;100494.69;;;18.93;100.00
9257;BME280;4665;51.368;6.782;2023-07-29T00:45:59;100501.28;;;19.04;100.00
9257;BME280;4665;51.368;6.782;2023-07-29T00:48:26;100493.38;;;19.02;100.00
9257;BME280;4665;51.368;6.782;2023-07-29T00:50:52;62069.41;;;-145.78;100.00
9257;BME280;4665;51.368;6.782;2023-07-29T00:53:17;62069.41;;;-145.78;100.00
9257;BME280;4665;51.368;6.782;2023-07-29T00:55:43;62069.41;;;-145.78;100.00
9257;BME280;4665;51.368;6.782;2023-07-29T00:58:10;62069.41;;;-145.78;100.00
9257;BME280;4665;51.368;6.782;2023-07-29T01:00:35;62069.41;;;-145.78;100.00
9257;BME280;4665;51.368;6.782;2023-07-29T01:03:01;62069.41;;;-145.78;100.00
9257;BME280;4665;51.368;6.782;2023-07-29T01:05:32;62069.41;;;-145.78;100.00
9257;BME280;4665;51.368;6.782;2023-07-29T01:08:11;62069.41;;;-145.78;100.00
9257;BME280;4665;51.368;6.782;2023-07-29T01:13:50;62069.41;;;-145.78;100.00
9257;BME280;4665;51.368;6.782;2023-07-29T01:16:31;62069.41;;;-145.78;100.00
9257;BME280;4665;51.368;6.782;2023-07-29T01:19:05;62069.41;;;-145.78;100.00
9257;BME280;4665;51.368;6.782;2023-07-29T01:21:32;62069.41;;;-145.78;100.00
9257;BME280;4665;51.368;6.782;2023-07-29T01:23:58;62069.41;;;-145.78;100.00
9257;BME280;4665;51.368;6.782;2023-07-29T01:26:24;62069.41;;;-145.78;100.00
9257;BME280;4665;51.368;6.782;2023-07-29T01:28:50;62069.41;;;-145.78;100.00
9257;BME280;4665;51.368;6.782;2023-07-29T01:31:25;62069.41;;;-145.78;100.00
9257;BME280;4665;51.368;6.782;2023-07-29T01:33:59;62069.41;;;-145.78;100.00
9257;BME280;4665;51.368;6.782;2023-07-29T01:36:29;62069.41;;;-145.78;100.00
9257;BME280;4665;51.368;6.782;2023-07-29T01:38:57;62069.41;;;-145.78;100.00
9257;BME280;4665;51.368;6.782;2023-07-29T01:41:24;62069.41;;;-145.78;100.00
9257;BME280;4665;51.368;6.782;2023-07-29T01:43:50;62069.41;;;-145.78;100.00
9257;BME280;4665;51.368;6.782;2023-07-29T01:46:17;62069.41;;;-145.78;100.00
9257;BME280;4665;51.368;6.782;2023-07-29T01:48:43;100464.38;;;19.23;100.00
9257;BME280;4665;51.368;6.782;2023-07-29T01:51:11;62069.41;;;-145.78;100.00
9257;BME280;4665;51.368;6.782;2023-07-29T01:53:37;62069.41;;;-145.78;100.00
9257;BME280;4665;51.368;6.782;2023-07-29T01:56:02;62069.41;;;-145.78;100.00
9257;BME280;4665;51.368;6.782;2023-07-29T01:58:28;62069.41;;;-145.78;100.00
9257;BME280;4665;51.368;6.782;2023-07-29T02:00:53;62069.41;;;-145.78;100.00
9257;BME280;4665;51.368;6.782;2023-07-29T02:03:19;62069.41;;;-145.78;100.00
9257;BME280;4665;51.368;6.782;2023-07-29T02:05:44;62069.41;;;-145.78;100.00
9257;BME280;4665;51.368;6.782;2023-07-29T02:08:10;62069.41;;;-145.78;100.00
9257;BME280;4665;51.368;6.782;2023-07-29T02:10:36;62069.41;;;-145.78;100.00
9257;BME280;4665;51.368;6.782;2023-07-29T02:13:03;62069.41;;;-145.78;100.00
9257;BME280;4665;51.368;6.782;2023-07-29T02:15:29;62069.41;;;-145.78;100.00
9257;BME280;4665;51.368;6.782;2023-07-29T02:17:54;62069.41;;;-145.78;100.00
9257;BME280;4665;51.368;6.782;2023-07-29T02:20:19;62069.41;;;-145.78;100.00
9257;BME280;4665;51.368;6.782;2023-07-29T02:22:45;62069.41;;;-145.78;100.00
9257;BME280;4665;51.368;6.782;2023-07-29T02:25:11;62069.41;;;-145.78;100.00
9257;BME280;4665;51.368;6.782;2023-07-29T02:27:36;62069.41;;;-145.78;100.00
9257;BME280;4665;51.368;6.782;2023-07-29T02:30:02;62069.41;;;-145.78;100.00
9257;BME280;4665;51.368;6.782;2023-07-29T02:32:28;62069.41;;;-145.78;100.00
9257;BME280;4665;51.368;6.782;2023-07-29T02:34:54;62069.41;;;-145.78;100.00
9257;BME280;4665;51.368;6.782;2023-07-29T02:37:19;62069.41;;;-145.78;100.00
9257;BME280;4665;51.368;6.782;2023-07-29T02:39:45;62069.41;;;-145.78;100.00
9257;BME280;4665;51.368;6.782;2023-07-29T02:42:10;62069.41;;;-145.78;100.00
9257;BME280;4665;51.368;6.782;2023-07-29T02:44:36;62069.41;;;-145.78;100.00
9257;BME280;4665;51.368;6.782;2023-07-29T02:47:01;62069.41;;;-145.78;100.00
9257;BME280;4665;51.368;6.782;2023-07-29T02:49:27;62069.41;;;-145.78;100.00
9257;BME280;4665;51.368;6.782;2023-07-29T02:51:52;62069.41;;;-145.78;100.00
9257;BME280;4665;51.368;6.782;2023-07-29T02:54:18;62069.41;;;-145.78;100.00
9257;BME280;4665;51.368;6.782;2023-07-29T02:56:43;62069.41;;;-145.78;100.00
9257;BME280;4665;51.368;6.782;2023-07-29T02:59:09;62069.41;;;-145.78;100.00
9257;BME280;4665;51.368;6.782;2023-07-29T03:01:34;62069.41;;;-145.78;100.00
9257;BME280;4665;51.368;6.782;2023-07-29T03:04:00;62069.41;;;-145.78;100.00
9257;BME280;4665;51.368;6.782;2023-07-29T03:06:26;62069.41;;;-145.78;100.00
9257;BME280;4665;51.368;6.782;2023-07-29T03:08:51;62069.41;;;-145.78;100.00
9257;BME280;4665;51.368;6.782;2023-07-29T03:11:17;62069.41;;;-145.78;100.00
9257;BME280;4665;51.368;6.782;2023-07-29T03:13:42;62069.41;;;-145.78;100.00
9257;BME280;4665;51.368;6.782;2023-07-29T03:16:10;62069.41;;;-145.78;100.00
9257;BME280;4665;51.368;6.782;2023-07-29T03:18:36;62069.41;;;-145.78;100.00
9257;BME280;4665;51.368;6.782;2023-07-29T03:21:02;62069.41;;;-145.78;100.00
9257;BME280;4665;51.368;6.782;2023-07-29T03:23:28;62069.41;;;-145.78;100.00
9257;BME280;4665;51.368;6.782;2023-07-29T03:25:58;62069.41;;;-145.78;100.00
9257;BME280;4665;51.368;6.782;2023-07-29T03:28:25;62069.41;;;-145.78;100.00
9257;BME280;4665;51.368;6.782;2023-07-29T03:30:52;62069.41;;;-145.78;100.00
9257;BME280;4665;51.368;6.782;2023-07-29T03:33:18;62069.41;;;-145.78;100.00
9257;BME280;4665;51.368;6.782;2023-07-29T03:35:43;62069.41;;;-145.78;100.00
9257;BME280;4665;51.368;6.782;2023-07-29T03:38:10;62069.41;;;-145.78;100.00
9257;BME280;4665;51.368;6.782;2023-07-29T03:40:36;62069.41;;;-145.78;100.00
9257;BME280;4665;51.368;6.782;2023-07-29T03:43:02;62069.41;;;-145.78;100.00
9257;BME280;4665;51.368;6.782;2023-07-29T03:45:27;62069.41;;;-145.78;100.00
9257;BME280;4665;51.368;6.782;2023-07-29T03:47:52;62069.41;;;-145.78;100.00
9257;BME280;4665;51.368;6.782;2023-07-29T03:50:18;62069.41;;;-145.78;100.00
9257;BME280;4665;51.368;6.782;2023-07-29T03:52:44;62069.41;;;-145.78;100.00
9257;BME280;4665;51.368;6.782;2023-07-29T03:55:09;62069.41;;;-145.78;100.00
9257;BME280;4665;51.368;6.782;2023-07-29T03:57:35;62069.41;;;-145.78;100.00
9257;BME280;4665;51.368;6.782;2023-07-29T04:00:00;62069.41;;;-145.78;100.00
9257;BME280;4665;51.368;6.782;2023-07-29T04:02:26;62069.41;;;-145.78;100.00
9257;BME280;4665;51.368;6.782;2023-07-29T04:04:51;62069.41;;;-145.78;100.00
9257;BME280;4665;51.368;6.782;2023-07-29T04:07:17;62069.41;;;-145.78;100.00
9257;BME280;4665;51.368;6.782;2023-07-29T04:09:42;62069.41;;;-145.78;100.00
9257;BME280;4665;51.368;6.782;2023-07-29T04:12:09;62069.41;;;-145.78;100.00
9257;BME280;4665;51.368;6.782;2023-07-29T04:14:34;62069.41;;;-145.78;100.00
9257;BME280;4665;51.368;6.782;2023-07-29T04:17:00;62069.41;;;-145.78;100.00
9257;BME280;4665;51.368;6.782;2023-07-29T04:19:26;62069.41;;;-145.78;100.00
9257;BME280;4665;51.368;6.782;2023-07-29T04:21:51;62069.41;;;-145.78;100.00
9257;BME280;4665;51.368;6.782;2023-07-29T04:24:17;62069.41;;;-145.78;100.00
9257;BME280;4665;51.368;6.782;2023-07-29T04:26:42;62069.41;;;-145.78;100.00
9257;BME280;4665;51.368;6.782;2023-07-29T04:29:08;100442.50;;;18.67;100.00
9257;BME280;4665;51.368;6.782;2023-07-29T04:31:33;62069.41;;;-145.78;100.00
9257;BME280;4665;51.368;6.782;2023-07-29T04:33:58;62069.41;;;-145.78;100.00
9257;BME280;4665;51.368;6.782;2023-07-29T04:36:24;62069.41;;;-145.78;100.00
9257;BME280;4665;51.368;6.782;2023-07-29T04:38:49;62069.41;;;-145.78;100.00
9257;BME280;4665;51.368;6.782;2023-07-29T04:41:14;62069.41;;;-145.78;100.00
9257;BME280;4665;51.368;6.782;2023-07-29T04:43:40;62069.41;;;-145.78;100.00
9257;BME280;4665;51.368;6.782;2023-07-29T04:46:08;62069.41;;;-145.78;100.00
9257;BME280;4665;51.368;6.782;2023-07-29T04:48:33;62069.41;;;-145.78;100.00
9257;BME280;4665;51.368;6.782;2023-07-29T04:50:59;62069.41;;;-145.78;100.00
9257;BME280;4665;51.368;6.782;2023-07-29T04:53:24;62069.41;;;-145.78;100.00
9257;BME280;4665;51.368;6.782;2023-07-29T04:55:50;62069.41;;;-145.78;100.00
9257;BME280;4665;51.368;6.782;2023-07-29T04:58:15;62069.41;;;-145.78;100.00
9257;BME280;4665;51.368;6.782;2023-07-29T05:00:41;62069.41;;;-145.78;100.00
9257;BME280;4665;51.368;6.782;2023-07-29T05:03:06;62069.41;;;-145.78;100.00
9257;BME280;4665;51.368;6.782;2023-07-29T05:05:32;62069.41;;;-145.78;100.00
9257;BME280;4665;51.368;6.782;2023-07-29T05:07:57;62069.41;;;-145.78;100.00
9257;BME280;4665;51.368;6.782;2023-07-29T05:10:22;62069.41;;;-145.78;100.00
9257;BME280;4665;51.368;6.782;2023-07-29T05:12:48;62069.41;;;-145.78;100.00
9257;BME280;4665;51.368;6.782;2023-07-29T05:15:13;62069.41;;;-145.78;100.00
9257;BME280;4665;51.368;6.782;2023-07-29T05:17:39;62069.41;;;-145.78;100.00
9257;BME280;4665;51.368;6.782;2023-07-29T05:20:05;100442.50;;;18.67;100.00
9257;BME280;4665;51.368;6.782;2023-07-29T05:22:30;62069.41;;;-145.78;100.00
9257;BME280;4665;51.368;6.782;2023-07-29T05:24:56;100468.75;;;18.40;100.00
9257;BME280;4665;51.368;6.782;2023-07-29T05:27:21;62069.41;;;-145.78;100.00
9257;BME280;4665;51.368;6.782;2023-07-29T05:29:46;100480.59;;;18.39;100.00
9257;BME280;4665;51.368;6.782;2023-07-29T05:32:12;62069.41;;;-145.78;100.00
9257;BME280;4665;51.368;6.782;2023-07-29T05:34:37;62069.41;;;-145.78;100.00
9257;BME280;4665;51.368;6.782;2023-07-29T05:37:02;62069.41;;;-145.78;100.00
9257;BME280;4665;51.368;6.782;2023-07-29T05:39:28;62069.41;;;-145.78;100.00
9257;BME280;4665;51.368;6.782;2023-07-29T05:41:54;62069.41;;;-145.78;100.00
9257;BME280;4665;51.368;6.782;2023-07-29T05:44:19;62069.41;;;-145.78;100.00
9257;BME280;4665;51.368;6.782;2023-07-29T05:46:45;62069.41;;;-145.78;100.00
9257;BME280;4665;51.368;6.782;2023-07-29T05:49:10;62069.41;;;-145.78;100.00
9257;BME280;4665;51.368;6.782;2023-07-29T05:51:35;62069.41;;;-145.78;100.00
9257;BME280;4665;51.368;6.782;2023-07-29T05:54:01;62069.41;;;-145.78;100.00
9257;BME280;4665;51.368;6.782;2023-07-29T05:56:26;62069.41;;;-145.78;100.00
9257;BME280;4665;51.368;6.782;2023-07-29T05:58:51;62069.41;;;-145.78;100.00
9257;BME280;4665;51.368;6.782;2023-07-29T06:01:17;62069.41;;;-145.78;100.00
9257;BME280;4665;51.368;6.782;2023-07-29T06:03:42;62069.41;;;-145.78;100.00
9257;BME280;4665;51.368;6.782;2023-07-29T06:06:08;62069.41;;;-145.78;100.00
9257;BME280;4665;51.368;6.782;2023-07-29T06:08:33;62069.41;;;-145.78;100.00
9257;BME280;4665;51.368;6.782;2023-07-29T06:11:00;62069.41;;;-145.78;100.00
9257;BME280;4665;51.368;6.782;2023-07-29T06:13:25;62069.41;;;-145.78;100.00
9257;BME280;4665;51.368;6.782;2023-07-29T06:15:50;100534.78;;;18.18;100.00
9257;BME280;4665;51.368;6.782;2023-07-29T06:18:16;100545.59;;;18.11;100.00
9257;BME280;4665;51.368;6.782;2023-07-29T06:20:41;100536.44;;;18.05;100.00
9257;BME280;4665;51.368;6.782;2023-07-29T06:23:08;100541.22;;;18.10;100.00
9257;BME280;4665;51.368;6.782;2023-07-29T06:25:33;100541.44;;;18.15;100.00
9257;BME280;4665;51.368;6.782;2023-07-29T06:27:59;100545.38;;;18.13;100.00
9257;BME280;4665;51.368;6.782;2023-07-29T06:30:24;100547.03;;;18.07;100.00
9257;BME280;4665;51.368;6.782;2023-07-29T06:32:49;100546.41;;;18.12;100.00
9257;BME280;4665;51.368;6.782;2023-07-29T06:35:15;100539.75;;;18.07;100.00
9257;BME280;4665;51.368;6.782;2023-07-29T06:37:40;100548.09;;;18.06;100.00
9257;BME280;4665;51.368;6.782;2023-07-29T06:40:06;100558.84;;;18.13;100.00
9257;BME280;4665;51.368;6.782;2023-07-29T06:42:31;100547.84;;;18.14;100.00
9257;BME280;4665;51.368;6.782;2023-07-29T06:44:57;100553.25;;;18.14;100.00
9257;BME280;4665;51.368;6.782;2023-07-29T06:47:22;100536.41;;;18.32;100.00
9257;BME280;4665;51.368;6.782;2023-07-29T06:49:48;100520.19;;;18.45;100.00
9257;BME280;4665;51.368;6.782;2023-07-29T06:52:13;100527.41;;;18.51;100.00
9257;BME280;4665;51.368;6.782;2023-07-29T06:54:38;100523.28;;;18.49;100.00
9257;BME280;4665;51.368;6.782;2023-07-29T06:57:04;62069.41;;;-145.78;100.00
9257;BME280;4665;51.368;6.782;2023-07-29T06:59:30;100523.28;;;18.49;100.00
9257;BME280;4665;51.368;6.782;2023-07-29T07:01:55;100527.16;;;18.66;100.00
9257;BME280;4665;51.368;6.782;2023-07-29T07:04:20;62069.41;;;-145.78;100.00
9257;BME280;4665;51.368;6.782;2023-07-29T07:06:46;100536.69;;;18.76;100.00
9257;BME280;4665;51.368;6.782;2023-07-29T07:09:11;62069.41;;;-145.78;100.00
9257;BME280;4665;51.368;6.782;2023-07-29T07:11:36;62069.41;;;-145.78;100.00
9257;BME280;4665;51.368;6.782;2023-07-29T07:14:02;62069.41;;;-145.78;100.00
9257;BME280;4665;51.368;6.782;2023-07-29T07:16:27;62069.41;;;-145.78;100.00
9257;BME280;4665;51.368;6.782;2023-07-29T07:18:56;62069.41;;;-145.78;100.00
9257;BME280;4665;51.368;6.782;2023-07-29T07:21:22;62069.41;;;-145.78;100.00
9257;BME280;4665;51.368;6.782;2023-07-29T07:23:49;62069.41;;;-145.78;100.00
9257;BME280;4665;51.368;6.782;2023-07-29T07:26:15;62069.41;;;-145.78;100.00
9257;BME280;4665;51.368;6.782;2023-07-29T07:28:40;62069.41;;;-145.78;100.00
9257;BME280;4665;51.368;6.782;2023-07-29T07:31:05;62069.41;;;-145.78;100.00
9257;BME280;4665;51.368;6.782;2023-07-29T07:33:31;62069.41;;;-145.78;100.00
9257;BME280;4665;51.368;6.782;2023-07-29T07:35:56;62069.41;;;-145.78;100.00
9257;BME280;4665;51.368;6.782;2023-07-29T07:38:21;62069.41;;;-145.78;100.00
9257;BME280;4665;51.368;6.782;2023-07-29T07:40:54;62069.41;;;-145.78;100.00
9257;BME280;4665;51.368;6.782;2023-07-29T07:43:20;62069.41;;;-145.78;100.00
9257;BME280;4665;51.368;6.782;2023-07-29T07:45:45;62069.41;;;-145.78;100.00
9257;BME280;4665;51.368;6.782;2023-07-29T07:48:11;62069.41;;;-145.78;100.00
9257;BME280;4665;51.368;6.782;2023-07-29T07:50:38;62069.41;;;-145.78;100.00
9257;BME280;4665;51.368;6.782;2023-07-29T07:53:03;62069.41;;;-145.78;100.00
9257;BME280;4665;51.368;6.782;2023-07-29T07:55:29;62069.41;;;-145.78;100.00
9257;BME280;4665;51.368;6.782;2023-07-29T07:57:54;62069.41;;;-145.78;100.00
9257;BME280;4665;51.368;6.782;2023-07-29T08:00:20;62069.41;;;-145.78;100.00
9257;BME280;4665;51.368;6.782;2023-07-29T08:02:45;62069.41;;;-145.78;100.00
9257;BME280;4665;51.368;6.782;2023-07-29T08:05:11;62069.41;;;-145.78;100.00
9257;BME280;4665;51.368;6.782;2023-07-29T08:07:36;62069.41;;;-145.78;100.00
9257;BME280;4665;51.368;6.782;2023-07-29T08:10:01;62069.41;;;-145.78;100.00
9257;BME280;4665;51.368;6.782;2023-07-29T08:12:27;62069.41;;;-145.78;100.00
9257;BME280;4665;51.368;6.782;2023-07-29T08:14:52;100534.22;;;20.01;100.00
9257;BME280;4665;51.368;6.782;2023-07-29T08:17:17;100517.53;;;20.04;100.00
9257;BME280;4665;51.368;6.782;2023-07-29T08:19:43;100540.69;;;20.18;100.00
9257;BME280;4665;51.368;6.782;2023-07-29T08:22:08;62069.41;;;-145.78;100.00
9257;BME280;4665;51.368;6.782;2023-07-29T08:24:34;62069.41;;;-145.78;100.00
9257;BME280;4665;51.368;6.782;2023-07-29T08:26:59;62069.41;;;-145.78;100.00
9257;BME280;4665;51.368;6.782;2023-07-29T08:29:24;62069.41;;;-145.78;100.00
9257;BME280;4665;51.368;6.782;2023-07-29T08:31:50;62069.41;;;-145.78;100.00
9257;BME280;4665;51.368;6.782;2023-07-29T08:34:16;62069.41;;;-145.78;100.00
9257;BME280;4665;51.368;6.782;2023-07-29T08:36:42;62069.41;;;-145.78;100.00
9257;BME280;4665;51.368;6.782;2023-07-29T08:39:07;62069.41;;;-145.78;100.00
9257;BME280;4665;51.368;6.782;2023-07-29T08:41:38;62069.41;;;-145.78;100.00
9257;BME280;4665;51.368;6.782;2023-07-29T08:44:15;62069.41;;;-145.78;100.00
9257;BME280;4665;51.368;6.782;2023-07-29T08:46:43;100540.69;;;20.18;100.00
9257;BME280;4665;51.368;6.782;2023-07-29T08:49:11;100540.69;;;20.18;100.00
9257;BME280;4665;51.368;6.782;2023-07-29T08:51:39;100513.59;;;20.62;100.00
9257;BME280;4665;51.368;6.782;2023-07-29T08:54:07;100513.59;;;20.62;100.00
9257;BME280;4665;51.368;6.782;2023-07-29T08:56:33;62069.41;;;-145.78;100.00
9257;BME280;4665;51.368;6.782;2023-07-29T08:58:59;100513.34;;;20.82;100.00
9257;BME280;4665;51.368;6.782;2023-07-29T09:01:27;100517.56;;;20.78;100.00
9257;BME280;4665;51.368;6.782;2023-07-29T09:03:53;100518.28;;;20.85;100.00
9257;BME280;4665;51.368;6.782;2023-07-29T09:06:18;100515.72;;;20.90;100.00
9257;BME280;4665;51.368;6.782;2023-07-29T09:08:45;100523.53;;;20.98;100.00
9257;BME280;4665;51.368;6.782;2023-07-29T09:11:14;100523.19;;;21.07;100.00
9257;BME280;4665;51.368;6.782;2023-07-29T09:13:42;100535.09;;;21.06;100.00
9257;BME280;4665;51.368;6.782;2023-07-29T09:16:08;100537.28;;;20.97;100.00
9257;BME280;4665;51.368;6.782;2023-07-29T09:18:34;100528.16;;;20.79;100.00
9257;BME280;4665;51.368;6.782;2023-07-29T09:20:59;100540.25;;;20.77;100.00
9257;BME280;4665;51.368;6.782;2023-07-29T09:23:28;62069.41;;;-145.78;100.00
9257;BME280;4665;51.368;6.782;2023-07-29T09:26:04;62069.41;;;-145.78;100.00
9257;BME280;4665;51.368;6.782;2023-07-29T09:28:37;62069.41;;;-145.78;100.00
9257;BME280;4665;51.368;6.782;2023-07-29T09:31:03;62069.41;;;-145.78;100.00
9257;BME280;4665;51.368;6.782;2023-07-29T09:33:29;100541.09;;;20.59;100.00
9257;BME280;4665;51.368;6.782;2023-07-29T09:35:56;100543.25;;;20.50;100.00
9257;BME280;4665;51.368;6.782;2023-07-29T09:38:29;100542.97;;;20.40;100.00
9257;BME280;4665;51.368;6.782;2023-07-29T09:40:56;100546.63;;;20.46;100.00
9257;BME280;4665;51.368;6.782;2023-07-29T09:43:29;100550.09;;;20.34;100.00
9257;BME280;4665;51.368;6.782;2023-07-29T09:46:02;100547.59;;;20.33;100.00
9257;BME280;4665;51.368;6.782;2023-07-29T09:48:28;100548.44;;;20.33;100.00
9257;BME280;4665;51.368;6.782;2023-07-29T09:50:56;100547.00;;;20.31;100.00
9257;BME280;4665;51.368;6.782;2023-07-29T09:53:21;100532.56;;;20.37;100.00
9257;BME280;4665;51.368;6.782;2023-07-29T09:55:48;100540.41;;;20.45;100.00
9257;BME280;4665;51.368;6.782;2023-07-29T09:58:22;100534.06;;;20.51;100.00
9257;BME280;4665;51.368;6.782;2023-07-29T10:00:51;100523.13;;;20.65;100.00
9257;BME280;4665;51.368;6.782;2023-07-29T10:03:17;100516.66;;;20.84;100.00
9257;BME280;4665;51.368;6.782;2023-07-29T10:05:44;100526.25;;;20.98;100.00
9257;BME280;4665;51.368;6.782;2023-07-29T10:08:10;100526.09;;;21.23;100.00
9257;BME280;4665;51.368;6.782;2023-07-29T10:10:37;100509.50;;;21.32;100.00
9257;BME280;4665;51.368;6.782;2023-07-29T10:13:02;100502.63;;;21.59;100.00
9257;BME280;4665;51.368;6.782;2023-07-29T10:15:29;100514.19;;;21.78;100.00
9257;BME280;4665;51.368;6.782;2023-07-29T10:17:55;100513.47;;;21.83;100.00
9257;BME280;4665;51.368;6.782;2023-07-29T10:20:21;100515.38;;;21.82;100.00
9257;BME280;4665;51.368;6.782;2023-07-29T10:22:47;100520.78;;;21.71;100.00
9257;BME280;4665;51.368;6.782;2023-07-29T10:25:17;100519.59;;;21.55;100.00
9257;BME280;4665;51.368;6.782;2023-07-29T10:28:06;100508.06;;;21.29;100.00
9257;BME280;4665;51.368;6.782;2023-07-29T10:30:32;100523.38;;;21.23;100.00
9257;BME280;4665;51.368;6.782;2023-07-29T10:33:01;100531.72;;;21.22;100.00
9257;BME280;4665;51.368;6.782;2023-07-29T10:35:27;100531.13;;;21.20;100.00
9257;BME280;4665;51.368;6.782;2023-07-29T10:37:53;100526.19;;;21.17;100.00
9257;BME280;4665;51.368;6.782;2023-07-29T10:40:20;100543.34;;;21.11;100.00
9257;BME280;4665;51.368;6.782;2023-07-29T10:43:02;100535.53;;;21.02;100.00
9257;BME280;4665;51.368;6.782;2023-07-29T10:45:36;100519.03;;;20.92;100.00
9257;BME280;4665;51.368;6.782;2023-07-29T10:48:06;100522.59;;;21.05;100.00
9257;BME280;4665;51.368;6.782;2023-07-29T10:50:31;100526.38;;;21.04;100.00
9257;BME280;4665;51.368;6.782;2023-07-29T10:52:57;100514.63;;;21.10;100.00
9257;BME280;4665;51.368;6.782;2023-07-29T10:55:34;100520.91;;;21.22;100.00
9257;BME280;4665;51.368;6.782;2023-07-29T11:00:31;100512.75;;;21.64;100.00
9257;BME280;4665;51.368;6.782;2023-07-29T11:03:02;100507.22;;;21.82;100.00
9257;BME280;4665;51.368;6.782;2023-07-29T11:05:49;100504.28;;;21.96;100.00
9257;BME280;4665;51.368;6.782;2023-07-29T11:08:28;100503.00;;;21.98;100.00
9257;BME280;4665;51.368;6.782;2023-07-29T11:13:26;100505.72;;;21.87;100.00
9257;BME280;4665;51.368;6.782;2023-07-29T11:15:53;100498.13;;;21.77;100.00
9257;BME280;4665;51.368;6.782;2023-07-29T11:18:20;100520.41;;;21.55;100.00
9257;BME280;4665;51.368;6.782;2023-07-29T11:20:46;100502.41;;;21.19;100.00
9257;BME280;4665;51.368;6.782;2023-07-29T11:23:11;100515.44;;;21.10;100.00
9257;BME280;4665;51.368;6.782;2023-07-29T11:25:36;100517.66;;;21.01;100.00
9257;BME280;4665;51.368;6.782;2023-07-29T11:28:03;100521.84;;;20.97;100.00
9257;BME280;4665;51.368;6.782;2023-07-29T11:30:28;100532.38;;;21.06;100.00
9257;BME280;4665;51.368;6.782;2023-07-29T11:32:58;100517.03;;;20.99;100.00
9257;BME280;4665;51.368;6.782;2023-07-29T11:35:24;100500.00;;;21.11;100.00
9257;BME280;4665;51.368;6.782;2023-07-29T11:37:52;100510.88;;;21.22;100.00
9257;BME280;4665;51.368;6.782;2023-07-29T11:40:19;100503.16;;;21.38;100.00
9257;BME280;4665;51.368;6.782;2023-07-29T11:42:46;100504.59;;;21.40;100.00
9257;BME280;4665;51.368;6.782;2023-07-29T11:45:13;100500.50;;;21.50;100.00
9257;BME280;4665;51.368;6.782;2023-07-29T11:47:39;100492.81;;;21.47;100.00
9257;BME280;4665;51.368;6.782;2023-07-29T11:50:08;100471.03;;;21.53;100.00
9257;BME280;4665;51.368;6.782;2023-07-29T11:52:42;100485.31;;;21.72;100.00
9257;BME280;4665;51.368;6.782;2023-07-29T11:55:08;100483.53;;;21.78;100.00
9257;BME280;4665;51.368;6.782;2023-07-29T11:57:36;100478.59;;;21.75;100.00
9257;BME280;4665;51.368;6.782;2023-07-29T12:00:06;100480.47;;;21.62;100.00
9257;BME280;4665;51.368;6.782;2023-07-29T12:02:37;100479.53;;;21.57;100.00
9257;BME280;4665;51.368;6.782;2023-07-29T12:05:04;100483.88;;;21.58;100.00
9257;BME280;4665;51.368;6.782;2023-07-29T12:07:31;100480.00;;;21.66;100.00
9257;BME280;4665;51.368;6.782;2023-07-29T12:09:57;100486.47;;;21.76;100.00
9257;BME280;4665;51.368;6.782;2023-07-29T12:12:22;100472.09;;;21.88;100.00
9257;BME280;4665;51.368;6.782;2023-07-29T12:14:48;100477.38;;;22.06;100.00
9257;BME280;4665;51.368;6.782;2023-07-29T12:17:14;100479.16;;;22.12;100.00
9257;BME280;4665;51.368;6.782;2023-07-29T12:19:40;100486.47;;;22.00;100.00
9257;BME280;4665;51.368;6.782;2023-07-29T12:22:08;100478.34;;;21.88;100.00
9257;BME280;4665;51.368;6.782;2023-07-29T12:24:35;100489.56;;;21.68;100.00
9257;BME280;4665;51.368;6.782;2023-07-29T12:27:01;100487.19;;;21.60;100.00
9257;BME280;4665;51.368;6.782;2023-07-29T12:29:27;100487.06;;;21.67;100.00
9257;BME280;4665;51.368;6.782;2023-07-29T12:32:02;100490.16;;;21.82;100.00
9257;BME280;4665;51.368;6.782;2023-07-29T12:34:30;100478.69;;;21.92;100.00
9257;BME280;4665;51.368;6.782;2023-07-29T12:36:56;100475.75;;;22.05;100.00
9257;BME280;4665;51.368;6.782;2023-07-29T12:39:26;100471.84;;;22.13;100.00
9257;BME280;4665;51.368;6.782;2023-07-29T12:41:54;100480.31;;;22.16;100.00
9257;BME280;4665;51.368;6.782;2023-07-29T12:44:20;100479.16;;;22.12;100.00
9257;BME280;4665;51.368;6.782;2023-07-29T12:46:47;100473.84;;;22.05;100.00
9257;BME280;4665;51.368;6.782;2023-07-29T12:49:13;100469.38;;;21.99;100.00
9257;BME280;4665;51.368;6.782;2023-07-29T12:51:38;100469.03;;;21.96;100.00
9257;BME280;4665;51.368;6.782;2023-07-29T12:54:04;100458.53;;;21.99;100.00
9257;BME280;4665;51.368;6.782;2023-07-29T12:56:30;100456.88;;;21.98;100.00
9257;BME280;4665;51.368;6.782;2023-07-29T12:58:57;100458.06;;;22.02;100.00
9257;BME280;4665;51.368;6.782;2023-07-29T13:01:23;100453.19;;;22.16;100.00